TAF LELC
LELC 090500Z 0906/1006 29012KT CAVOK TX22/0913Z TN05/0906Z BECMG 0917/0919 23008KT=
METAR LELC
LELC 091100Z 25010KT 190V280 CAVOK 16/03 Q1022 NOSIG=
LELC 091030Z 25013KT 220V280 CAVOK 15/03 Q1022 NOSIG=
LELC 091000Z 26012KT CAVOK 14/03 Q1023 NOSIG=
LELC 090930Z 26011KT CAVOK 12/03 Q1023 NOSIG=
LELC 090900Z 26010KT CAVOK 11/03 Q1023 NOSIG=
WC LELC
WS LELC
WV LELC